sensor_id;sensor_type;location;lat;lon;timestamp;temperature;humidity
31991;DHT22;18508;49.386;8.370;2023-01-16T00:02:03;4.90;99.90
31991;DHT22;18508;49.386;8.370;2023-01-16T00:04:31;4.90;99.90
31991;DHT22;18508;49.386;8.370;2023-01-16T00:07:00;4.90;99.90
31991;DHT22;18508;49.386;8.370;2023-01-16T00:09:28;4.90;99.90
31991;DHT22;18508;49.386;8.370;2023-01-16T00:11:56;5.30;99.90
31991;DHT22;18508;49.386;8.370;2023-01-16T00:14:24;4.80;99.90
31991;DHT22;18508;49.386;8.370;2023-01-16T00:16:55;4.70;99.90
31991;DHT22;18508;49.386;8.370;2023-01-16T00:19:23;4.70;99.90
31991;DHT22;18508;49.386;8.370;2023-01-16T00:21:53;4.80;99.90
31991;DHT22;18508;49.386;8.370;2023-01-16T00:26:50;4.60;99.90
31991;DHT22;18508;49.386;8.370;2023-01-16T00:29:18;4.50;99.90
31991;DHT22;18508;49.386;8.370;2023-01-16T00:31:46;5.10;99.90
31991;DHT22;18508;49.386;8.370;2023-01-16T00:34:16;5.00;99.90
31991;DHT22;18508;49.386;8.370;2023-01-16T00:36:44;4.60;99.90
31991;DHT22;18508;49.386;8.370;2023-01-16T00:41:41;4.90;99.90
31991;DHT22;18508;49.386;8.370;2023-01-16T00:44:09;4.30;99.90
31991;DHT22;18508;49.386;8.370;2023-01-16T00:46:37;4.40;99.90
31991;DHT22;18508;49.386;8.370;2023-01-16T00:51:36;3.40;99.90
31991;DHT22;18508;49.386;8.370;2023-01-16T00:59:01;5.80;99.90
31991;DHT22;18508;49.386;8.370;2023-01-16T01:06:46;4.50;99.90
31991;DHT22;18508;49.386;8.370;2023-01-16T01:09:14;4.20;99.90
31991;DHT22;18508;49.386;8.370;2023-01-16T01:11:42;4.30;99.90
31991;DHT22;18508;49.386;8.370;2023-01-16T01:16:39;4.20;99.90
31991;DHT22;18508;49.386;8.370;2023-01-16T01:19:08;4.60;99.90
31991;DHT22;18508;49.386;8.370;2023-01-16T01:21:40;3.90;99.90
31991;DHT22;18508;49.386;8.370;2023-01-16T01:24:09;4.40;99.90
31991;DHT22;18508;49.386;8.370;2023-01-16T01:29:07;4.50;99.90
31991;DHT22;18508;49.386;8.370;2023-01-16T01:36:32;4.40;99.90
31991;DHT22;18508;49.386;8.370;2023-01-16T01:39:00;4.30;99.90
31991;DHT22;18508;49.386;8.370;2023-01-16T01:41:30;4.50;99.90
31991;DHT22;18508;49.386;8.370;2023-01-16T01:43:58;4.30;99.90
31991;DHT22;18508;49.386;8.370;2023-01-16T01:46:30;4.20;99.90
31991;DHT22;18508;49.386;8.370;2023-01-16T01:49:00;4.30;99.90
31991;DHT22;18508;49.386;8.370;2023-01-16T01:51:33;4.20;99.90
31991;DHT22;18508;49.386;8.370;2023-01-16T01:54:05;4.50;99.90
31991;DHT22;18508;49.386;8.370;2023-01-16T01:56:41;4.10;99.90
31991;DHT22;18508;49.386;8.370;2023-01-16T01:59:14;4.40;99.90
31991;DHT22;18508;49.386;8.370;2023-01-16T02:01:43;4.40;99.90
31991;DHT22;18508;49.386;8.370;2023-01-16T02:04:16;4.40;99.90
31991;DHT22;18508;49.386;8.370;2023-01-16T02:06:45;4.30;99.90
31991;DHT22;18508;49.386;8.370;2023-01-16T02:09:16;4.30;99.90
31991;DHT22;18508;49.386;8.370;2023-01-16T02:11:52;4.40;99.90
31991;DHT22;18508;49.386;8.370;2023-01-16T02:14:21;4.10;99.90
31991;DHT22;18508;49.386;8.370;2023-01-16T02:16:56;4.20;99.90
31991;DHT22;18508;49.386;8.370;2023-01-16T02:19:50;4.20;99.90
31991;DHT22;18508;49.386;8.370;2023-01-16T02:25:44;4.20;99.90
31991;DHT22;18508;49.386;8.370;2023-01-16T02:28:57;4.40;99.90
31991;DHT22;18508;49.386;8.370;2023-01-16T02:31:33;4.40;99.90
31991;DHT22;18508;49.386;8.370;2023-01-16T02:34:16;4.70;99.90
31991;DHT22;18508;49.386;8.370;2023-01-16T02:36:55;4.60;99.90
31991;DHT22;18508;49.386;8.370;2023-01-16T02:39:32;4.20;99.90
31991;DHT22;18508;49.386;8.370;2023-01-16T02:42:13;4.10;99.90
31991;DHT22;18508;49.386;8.370;2023-01-16T02:44:50;4.10;99.90
31991;DHT22;18508;49.386;8.370;2023-01-16T02:47:25;4.10;99.90
31991;DHT22;18508;49.386;8.370;2023-01-16T02:50:03;4.20;99.90
31991;DHT22;18508;49.386;8.370;2023-01-16T02:52:37;3.90;99.90
31991;DHT22;18508;49.386;8.370;2023-01-16T02:55:10;4.30;99.90
31991;DHT22;18508;49.386;8.370;2023-01-16T02:57:43;4.20;99.90
31991;DHT22;18508;49.386;8.370;2023-01-16T03:00:15;4.20;99.90
31991;DHT22;18508;49.386;8.370;2023-01-16T03:02:47;4.60;99.90
31991;DHT22;18508;49.386;8.370;2023-01-16T03:05:16;4.50;99.90
31991;DHT22;18508;49.386;8.370;2023-01-16T03:08:17;4.60;99.90
31991;DHT22;18508;49.386;8.370;2023-01-16T03:11:12;4.50;99.90
31991;DHT22;18508;49.386;8.370;2023-01-16T03:13:59;4.60;99.90
31991;DHT22;18508;49.386;8.370;2023-01-16T03:16:36;4.50;99.90
31991;DHT22;18508;49.386;8.370;2023-01-16T03:19:19;4.80;99.90
31991;DHT22;18508;49.386;8.370;2023-01-16T03:21:58;4.50;99.90
31991;DHT22;18508;49.386;8.370;2023-01-16T03:24:36;4.20;99.90
31991;DHT22;18508;49.386;8.370;2023-01-16T03:27:14;4.60;99.90
31991;DHT22;18508;49.386;8.370;2023-01-16T03:29:53;4.50;99.90
31991;DHT22;18508;49.386;8.370;2023-01-16T03:32:29;4.30;99.90
31991;DHT22;18508;49.386;8.370;2023-01-16T03:35:03;4.70;99.90
31991;DHT22;18508;49.386;8.370;2023-01-16T03:37:40;4.60;99.90
31991;DHT22;18508;49.386;8.370;2023-01-16T03:40:12;4.70;99.90
31991;DHT22;18508;49.386;8.370;2023-01-16T03:42:45;4.60;99.90
31991;DHT22;18508;49.386;8.370;2023-01-16T03:45:16;4.50;99.90
31991;DHT22;18508;49.386;8.370;2023-01-16T03:47:51;4.80;99.90
31991;DHT22;18508;49.386;8.370;2023-01-16T03:50:27;4.80;99.90
31991;DHT22;18508;49.386;8.370;2023-01-16T03:53:00;4.70;99.90
31991;DHT22;18508;49.386;8.370;2023-01-16T03:55:33;4.70;99.90
31991;DHT22;18508;49.386;8.370;2023-01-16T03:58:06;4.50;99.90
31991;DHT22;18508;49.386;8.370;2023-01-16T04:00:41;4.70;99.90
31991;DHT22;18508;49.386;8.370;2023-01-16T04:03:15;4.50;99.90
31991;DHT22;18508;49.386;8.370;2023-01-16T04:05:52;4.70;99.90
31991;DHT22;18508;49.386;8.370;2023-01-16T04:08:24;4.70;99.90
31991;DHT22;18508;49.386;8.370;2023-01-16T04:10:55;4.40;99.90
31991;DHT22;18508;49.386;8.370;2023-01-16T04:13:27;4.70;99.90
31991;DHT22;18508;49.386;8.370;2023-01-16T04:16:00;4.60;99.90
31991;DHT22;18508;49.386;8.370;2023-01-16T04:18:34;4.60;99.90
31991;DHT22;18508;49.386;8.370;2023-01-16T04:21:05;4.80;99.90
31991;DHT22;18508;49.386;8.370;2023-01-16T04:23:34;4.60;99.90
31991;DHT22;18508;49.386;8.370;2023-01-16T04:26:04;4.50;99.90
31991;DHT22;18508;49.386;8.370;2023-01-16T04:28:32;4.50;99.90
31991;DHT22;18508;49.386;8.370;2023-01-16T04:31:00;4.30;99.90
31991;DHT22;18508;49.386;8.370;2023-01-16T04:33:31;4.40;99.90
31991;DHT22;18508;49.386;8.370;2023-01-16T04:35:59;4.50;99.90
31991;DHT22;18508;49.386;8.370;2023-01-16T04:38:29;3.80;99.90
31991;DHT22;18508;49.386;8.370;2023-01-16T04:40:57;4.30;99.90
31991;DHT22;18508;49.386;8.370;2023-01-16T04:43:25;4.40;99.90
31991;DHT22;18508;49.386;8.370;2023-01-16T04:45:53;4.80;99.90
31991;DHT22;18508;49.386;8.370;2023-01-16T04:48:24;4.10;99.90
31991;DHT22;18508;49.386;8.370;2023-01-16T04:50:55;4.50;99.90
31991;DHT22;18508;49.386;8.370;2023-01-16T04:53:23;4.80;99.90
31991;DHT22;18508;49.386;8.370;2023-01-16T04:55:53;4.30;99.90
31991;DHT22;18508;49.386;8.370;2023-01-16T04:58:21;4.30;99.90
31991;DHT22;18508;49.386;8.370;2023-01-16T05:00:49;4.40;99.90
31991;DHT22;18508;49.386;8.370;2023-01-16T05:03:17;4.50;99.90
31991;DHT22;18508;49.386;8.370;2023-01-16T05:05:47;4.20;99.90
31991;DHT22;18508;49.386;8.370;2023-01-16T05:08:15;4.40;99.90
31991;DHT22;18508;49.386;8.370;2023-01-16T05:10:45;4.50;99.90
31991;DHT22;18508;49.386;8.370;2023-01-16T05:13:17;4.40;99.90
31991;DHT22;18508;49.386;8.370;2023-01-16T05:15:46;4.40;99.90
31991;DHT22;18508;49.386;8.370;2023-01-16T05:18:14;4.30;99.90
31991;DHT22;18508;49.386;8.370;2023-01-16T05:20:42;4.30;99.90
31991;DHT22;18508;49.386;8.370;2023-01-16T05:23:11;4.70;99.90
31991;DHT22;18508;49.386;8.370;2023-01-16T05:25:39;4.40;99.90
31991;DHT22;18508;49.386;8.370;2023-01-16T05:28:07;4.40;99.90
31991;DHT22;18508;49.386;8.370;2023-01-16T05:30:37;4.50;99.90
31991;DHT22;18508;49.386;8.370;2023-01-16T05:33:07;4.50;99.90
31991;DHT22;18508;49.386;8.370;2023-01-16T05:35:35;4.70;99.90
31991;DHT22;18508;49.386;8.370;2023-01-16T05:38:03;4.90;99.90
31991;DHT22;18508;49.386;8.370;2023-01-16T05:40:31;5.10;99.90
31991;DHT22;18508;49.386;8.370;2023-01-16T05:43:00;4.90;99.90
31991;DHT22;18508;49.386;8.370;2023-01-16T05:45:28;4.90;99.90
31991;DHT22;18508;49.386;8.370;2023-01-16T05:48:01;4.90;99.90
31991;DHT22;18508;49.386;8.370;2023-01-16T05:50:29;5.00;99.90
31991;DHT22;18508;49.386;8.370;2023-01-16T05:53:00;5.00;99.90
31991;DHT22;18508;49.386;8.370;2023-01-16T05:55:29;6.00;99.90
31991;DHT22;18508;49.386;8.370;2023-01-16T05:57:57;5.00;99.90
31991;DHT22;18508;49.386;8.370;2023-01-16T06:00:26;5.00;99.90
31991;DHT22;18508;49.386;8.370;2023-01-16T06:02:54;4.00;99.90
31991;DHT22;18508;49.386;8.370;2023-01-16T06:05:24;5.00;99.90
31991;DHT22;18508;49.386;8.370;2023-01-16T06:07:55;5.10;99.90
31991;DHT22;18508;49.386;8.370;2023-01-16T06:10:24;5.30;99.90
31991;DHT22;18508;49.386;8.370;2023-01-16T06:12:52;5.10;99.90
31991;DHT22;18508;49.386;8.370;2023-01-16T06:15:21;5.10;99.90
31991;DHT22;18508;49.386;8.370;2023-01-16T06:17:50;5.10;99.90
31991;DHT22;18508;49.386;8.370;2023-01-16T06:20:23;5.00;99.90
31991;DHT22;18508;49.386;8.370;2023-01-16T06:22:52;5.10;99.90
31991;DHT22;18508;49.386;8.370;2023-01-16T06:25:25;4.70;99.90
31991;DHT22;18508;49.386;8.370;2023-01-16T06:27:53;5.30;99.90
31991;DHT22;18508;49.386;8.370;2023-01-16T06:30:24;4.90;99.90
31991;DHT22;18508;49.386;8.370;2023-01-16T06:32:53;5.10;99.90
31991;DHT22;18508;49.386;8.370;2023-01-16T06:37:52;4.80;99.90
31991;DHT22;18508;49.386;8.370;2023-01-16T06:40:22;4.60;99.90
31991;DHT22;18508;49.386;8.370;2023-01-16T06:42:51;5.10;99.90
31991;DHT22;18508;49.386;8.370;2023-01-16T06:45:19;4.70;99.90
31991;DHT22;18508;49.386;8.370;2023-01-16T06:47:51;4.90;99.90
31991;DHT22;18508;49.386;8.370;2023-01-16T06:50:20;4.70;99.90
31991;DHT22;18508;49.386;8.370;2023-01-16T06:52:53;4.50;99.90
31991;DHT22;18508;49.386;8.370;2023-01-16T06:55:21;4.90;99.90
31991;DHT22;18508;49.386;8.370;2023-01-16T06:57:49;4.80;99.90
31991;DHT22;18508;49.386;8.370;2023-01-16T07:02:51;4.70;99.90
31991;DHT22;18508;49.386;8.370;2023-01-16T07:05:21;4.70;99.90
31991;DHT22;18508;49.386;8.370;2023-01-16T07:07:53;5.00;99.90
31991;DHT22;18508;49.386;8.370;2023-01-16T07:10:25;4.70;99.90
31991;DHT22;18508;49.386;8.370;2023-01-16T07:12:53;4.70;99.90
31991;DHT22;18508;49.386;8.370;2023-01-16T07:15:23;4.70;99.90
31991;DHT22;18508;49.386;8.370;2023-01-16T07:18:12;4.80;99.90
31991;DHT22;18508;49.386;8.370;2023-01-16T07:21:00;4.80;99.90
31991;DHT22;18508;49.386;8.370;2023-01-16T07:23:50;6.30;99.90
31991;DHT22;18508;49.386;8.370;2023-01-16T07:26:21;4.40;99.90
31991;DHT22;18508;49.386;8.370;2023-01-16T07:28:51;4.80;99.90
31991;DHT22;18508;49.386;8.370;2023-01-16T07:31:22;4.70;99.90
31991;DHT22;18508;49.386;8.370;2023-01-16T07:33:53;4.60;99.90
31991;DHT22;18508;49.386;8.370;2023-01-16T07:36:22;4.80;99.90
31991;DHT22;18508;49.386;8.370;2023-01-16T07:38:51;4.90;99.90
31991;DHT22;18508;49.386;8.370;2023-01-16T07:43:54;4.60;99.90
31991;DHT22;18508;49.386;8.370;2023-01-16T07:46:22;4.20;99.90
31991;DHT22;18508;49.386;8.370;2023-01-16T07:49:01;4.40;99.90
31991;DHT22;18508;49.386;8.370;2023-01-16T07:51:30;4.60;99.90
31991;DHT22;18508;49.386;8.370;2023-01-16T07:54:02;4.60;99.90
31991;DHT22;18508;49.386;8.370;2023-01-16T07:56:30;4.70;99.90
31991;DHT22;18508;49.386;8.370;2023-01-16T07:58:58;4.80;99.90
31991;DHT22;18508;49.386;8.370;2023-01-16T08:01:26;4.40;99.90
31991;DHT22;18508;49.386;8.370;2023-01-16T08:03:54;4.60;99.90
31991;DHT22;18508;49.386;8.370;2023-01-16T08:06:23;4.50;99.90
31991;DHT22;18508;49.386;8.370;2023-01-16T08:08:51;4.70;99.90
31991;DHT22;18508;49.386;8.370;2023-01-16T08:11:21;4.50;99.90
31991;DHT22;18508;49.386;8.370;2023-01-16T08:14:06;4.60;99.90
31991;DHT22;18508;49.386;8.370;2023-01-16T08:16:34;4.70;99.90
31991;DHT22;18508;49.386;8.370;2023-01-16T08:19:02;4.50;99.90
31991;DHT22;18508;49.386;8.370;2023-01-16T08:24:04;5.10;99.90
31991;DHT22;18508;49.386;8.370;2023-01-16T08:26:35;5.00;99.90
31991;DHT22;18508;49.386;8.370;2023-01-16T08:29:04;4.90;99.90
31991;DHT22;18508;49.386;8.370;2023-01-16T08:31:32;5.00;99.90
31991;DHT22;18508;49.386;8.370;2023-01-16T08:36:31;5.10;99.90
31991;DHT22;18508;49.386;8.370;2023-01-16T08:39:00;4.90;99.90
31991;DHT22;18508;49.386;8.370;2023-01-16T08:41:28;4.90;99.90
31991;DHT22;18508;49.386;8.370;2023-01-16T08:44:17;6.10;99.90
31991;DHT22;18508;49.386;8.370;2023-01-16T08:47:08;5.50;99.90
31991;DHT22;18508;49.386;8.370;2023-01-16T08:49:54;4.90;99.90
31991;DHT22;18508;49.386;8.370;2023-01-16T08:52:41;5.00;99.90
31991;DHT22;18508;49.386;8.370;2023-01-16T08:55:11;5.70;99.90
31991;DHT22;18508;49.386;8.370;2023-01-16T08:57:40;5.20;99.90
31991;DHT22;18508;49.386;8.370;2023-01-16T09:00:13;5.20;99.90
31991;DHT22;18508;49.386;8.370;2023-01-16T09:07:40;5.20;99.90
31991;DHT22;18508;49.386;8.370;2023-01-16T09:10:15;5.30;99.90
31991;DHT22;18508;49.386;8.370;2023-01-16T09:12:45;5.30;99.90
31991;DHT22;18508;49.386;8.370;2023-01-16T09:15:32;5.30;99.90
31991;DHT22;18508;49.386;8.370;2023-01-16T09:18:00;5.90;99.90
31991;DHT22;18508;49.386;8.370;2023-01-16T09:20:32;5.40;99.90
31991;DHT22;18508;49.386;8.370;2023-01-16T09:23:01;5.30;99.90
31991;DHT22;18508;49.386;8.370;2023-01-16T09:25:31;5.50;99.90
31991;DHT22;18508;49.386;8.370;2023-01-16T09:28:00;5.40;99.90
31991;DHT22;18508;49.386;8.370;2023-01-16T09:32:58;5.50;99.90
31991;DHT22;18508;49.386;8.370;2023-01-16T09:35:26;5.40;99.90
31991;DHT22;18508;49.386;8.370;2023-01-16T09:37:55;5.70;99.90
31991;DHT22;18508;49.386;8.370;2023-01-16T09:40:24;5.70;99.90
31991;DHT22;18508;49.386;8.370;2023-01-16T09:42:59;5.40;99.90
31991;DHT22;18508;49.386;8.370;2023-01-16T09:45:50;5.50;99.90
31991;DHT22;18508;49.386;8.370;2023-01-16T09:48:25;5.10;99.90
31991;DHT22;18508;49.386;8.370;2023-01-16T09:50:57;5.60;99.90
31991;DHT22;18508;49.386;8.370;2023-01-16T09:53:34;5.70;99.90
31991;DHT22;18508;49.386;8.370;2023-01-16T09:56:23;5.80;99.90
31991;DHT22;18508;49.386;8.370;2023-01-16T09:59:32;3.40;99.90
31991;DHT22;18508;49.386;8.370;2023-01-16T10:02:14;5.80;99.90
31991;DHT22;18508;49.386;8.370;2023-01-16T10:04:48;5.90;99.90
31991;DHT22;18508;49.386;8.370;2023-01-16T10:10:25;6.30;99.90
31991;DHT22;18508;49.386;8.370;2023-01-16T10:13:15;5.90;99.90
31991;DHT22;18508;49.386;8.370;2023-01-16T10:15:53;6.10;99.90
31991;DHT22;18508;49.386;8.370;2023-01-16T10:18:34;6.20;99.90
31991;DHT22;18508;49.386;8.370;2023-01-16T10:21:34;6.10;99.90
31991;DHT22;18508;49.386;8.370;2023-01-16T10:24:12;6.20;99.90
31991;DHT22;18508;49.386;8.370;2023-01-16T10:26:53;6.20;99.90
31991;DHT22;18508;49.386;8.370;2023-01-16T10:29:28;6.00;99.90
31991;DHT22;18508;49.386;8.370;2023-01-16T10:32:00;6.20;99.90
31991;DHT22;18508;49.386;8.370;2023-01-16T10:34:33;6.30;99.90
31991;DHT22;18508;49.386;8.370;2023-01-16T10:37:05;6.60;99.90
31991;DHT22;18508;49.386;8.370;2023-01-16T10:39:35;7.60;99.90
31991;DHT22;18508;49.386;8.370;2023-01-16T10:42:11;6.70;99.90
31991;DHT22;18508;49.386;8.370;2023-01-16T10:45:01;5.10;99.90
31991;DHT22;18508;49.386;8.370;2023-01-16T10:47:55;6.60;99.90
31991;DHT22;18508;49.386;8.370;2023-01-16T10:50:42;6.60;99.90
31991;DHT22;18508;49.386;8.370;2023-01-16T10:53:12;6.70;99.90
31991;DHT22;18508;49.386;8.370;2023-01-16T10:55:43;6.90;99.90
31991;DHT22;18508;49.386;8.370;2023-01-16T10:58:22;7.00;99.90
31991;DHT22;18508;49.386;8.370;2023-01-16T11:00:53;7.00;99.90
31991;DHT22;18508;49.386;8.370;2023-01-16T11:03:30;6.60;99.90
31991;DHT22;18508;49.386;8.370;2023-01-16T11:06:11;6.30;99.90
31991;DHT22;18508;49.386;8.370;2023-01-16T11:08:43;6.20;99.90
31991;DHT22;18508;49.386;8.370;2023-01-16T11:11:13;6.30;99.90
31991;DHT22;18508;49.386;8.370;2023-01-16T11:14:00;6.20;99.90
31991;DHT22;18508;49.386;8.370;2023-01-16T11:16:48;6.10;99.90
31991;DHT22;18508;49.386;8.370;2023-01-16T11:19:40;6.00;99.90
31991;DHT22;18508;49.386;8.370;2023-01-16T11:22:25;5.80;99.90
31991;DHT22;18508;49.386;8.370;2023-01-16T11:24:57;5.80;99.90
31991;DHT22;18508;49.386;8.370;2023-01-16T11:27:30;6.10;99.90
31991;DHT22;18508;49.386;8.370;2023-01-16T11:30:03;5.90;99.90
31991;DHT22;18508;49.386;8.370;2023-01-16T11:32:35;6.10;99.90
31991;DHT22;18508;49.386;8.370;2023-01-16T11:35:11;5.90;99.90
31991;DHT22;18508;49.386;8.370;2023-01-16T11:37:42;6.30;99.90
31991;DHT22;18508;49.386;8.370;2023-01-16T11:40:18;6.10;99.90
31991;DHT22;18508;49.386;8.370;2023-01-16T11:42:53;6.20;99.90
31991;DHT22;18508;49.386;8.370;2023-01-16T11:45:43;5.70;99.90
31991;DHT22;18508;49.386;8.370;2023-01-16T11:48:36;6.40;99.90
31991;DHT22;18508;49.386;8.370;2023-01-16T11:51:09;6.30;99.90
31991;DHT22;18508;49.386;8.370;2023-01-16T11:53:39;6.10;99.90
31991;DHT22;18508;49.386;8.370;2023-01-16T11:59:39;6.50;99.90
31991;DHT22;18508;49.386;8.370;2023-01-16T12:05:18;6.40;99.90
31991;DHT22;18508;49.386;8.370;2023-01-16T12:08:17;6.70;99.90
31991;DHT22;18508;49.386;8.370;2023-01-16T12:10:57;6.90;99.90
31991;DHT22;18508;49.386;8.370;2023-01-16T12:13:38;6.80;99.90
31991;DHT22;18508;49.386;8.370;2023-01-16T12:16:33;6.90;99.90
31991;DHT22;18508;49.386;8.370;2023-01-16T12:19:23;7.00;99.90
31991;DHT22;18508;49.386;8.370;2023-01-16T12:22:14;6.90;99.90
31991;DHT22;18508;49.386;8.370;2023-01-16T12:24:52;7.30;99.90
31991;DHT22;18508;49.386;8.370;2023-01-16T12:27:31;7.30;99.90
31991;DHT22;18508;49.386;8.370;2023-01-16T12:30:09;7.50;99.90
31991;DHT22;18508;49.386;8.370;2023-01-16T12:32:52;7.80;99.90
31991;DHT22;18508;49.386;8.370;2023-01-16T12:35:34;7.90;99.90
31991;DHT22;18508;49.386;8.370;2023-01-16T12:38:17;8.00;99.90
31991;DHT22;18508;49.386;8.370;2023-01-16T12:40:57;7.50;99.90
31991;DHT22;18508;49.386;8.370;2023-01-16T12:44:00;8.00;99.90
31991;DHT22;18508;49.386;8.370;2023-01-16T12:46:36;7.80;99.90
31991;DHT22;18508;49.386;8.370;2023-01-16T12:49:22;8.30;99.90
31991;DHT22;18508;49.386;8.370;2023-01-16T12:52:04;8.00;99.90
31991;DHT22;18508;49.386;8.370;2023-01-16T12:54:49;8.00;99.90
31991;DHT22;18508;49.386;8.370;2023-01-16T13:00:10;8.10;99.90
31991;DHT22;18508;49.386;8.370;2023-01-16T13:02:45;8.10;99.90
31991;DHT22;18508;49.386;8.370;2023-01-16T13:05:17;8.00;99.90
31991;DHT22;18508;49.386;8.370;2023-01-16T13:07:51;8.30;99.90
31991;DHT22;18508;49.386;8.370;2023-01-16T13:10:23;8.10;99.90
31991;DHT22;18508;49.386;8.370;2023-01-16T13:13:16;8.10;99.90
31991;DHT22;18508;49.386;8.370;2023-01-16T13:15:59;8.00;99.90
31991;DHT22;18508;49.386;8.370;2023-01-16T13:18:37;7.80;99.90
31991;DHT22;18508;49.386;8.370;2023-01-16T13:21:12;8.10;99.90
31991;DHT22;18508;49.386;8.370;2023-01-16T13:23:47;8.30;99.90
31991;DHT22;18508;49.386;8.370;2023-01-16T13:26:18;8.10;99.90
31991;DHT22;18508;49.386;8.370;2023-01-16T13:28:57;7.90;99.90
31991;DHT22;18508;49.386;8.370;2023-01-16T13:31:34;8.10;99.90
31991;DHT22;18508;49.386;8.370;2023-01-16T13:34:13;8.30;99.90
31991;DHT22;18508;49.386;8.370;2023-01-16T13:39:50;8.10;99.90
31991;DHT22;18508;49.386;8.370;2023-01-16T13:42:22;8.20;99.90
31991;DHT22;18508;49.386;8.370;2023-01-16T13:44:55;8.20;99.90
31991;DHT22;18508;49.386;8.370;2023-01-16T13:47:42;8.00;99.90
31991;DHT22;18508;49.386;8.370;2023-01-16T13:50:19;8.50;99.90
31991;DHT22;18508;49.386;8.370;2023-01-16T13:52:49;8.50;99.90
31991;DHT22;18508;49.386;8.370;2023-01-16T13:55:29;8.40;99.90
31991;DHT22;18508;49.386;8.370;2023-01-16T13:58:09;8.40;99.90
31991;DHT22;18508;49.386;8.370;2023-01-16T14:00:40;8.40;99.90
31991;DHT22;18508;49.386;8.370;2023-01-16T14:03:20;8.50;99.90
31991;DHT22;18508;49.386;8.370;2023-01-16T14:05:52;8.50;99.90
31991;DHT22;18508;49.386;8.370;2023-01-16T14:08:45;8.50;99.90
31991;DHT22;18508;49.386;8.370;2023-01-16T14:11:38;8.50;99.90
31991;DHT22;18508;49.386;8.370;2023-01-16T14:14:30;8.50;99.90
31991;DHT22;18508;49.386;8.370;2023-01-16T14:17:17;8.60;99.90
31991;DHT22;18508;49.386;8.370;2023-01-16T14:19:55;8.50;99.90
31991;DHT22;18508;49.386;8.370;2023-01-16T14:22:26;8.60;99.90
31991;DHT22;18508;49.386;8.370;2023-01-16T14:25:22;8.70;99.90
31991;DHT22;18508;49.386;8.370;2023-01-16T14:27:53;8.60;99.90
31991;DHT22;18508;49.386;8.370;2023-01-16T14:30:30;8.60;99.90
31991;DHT22;18508;49.386;8.370;2023-01-16T14:33:03;8.80;99.90
31991;DHT22;18508;49.386;8.370;2023-01-16T14:35:42;8.70;99.90
31991;DHT22;18508;49.386;8.370;2023-01-16T14:38:18;8.40;99.90
31991;DHT22;18508;49.386;8.370;2023-01-16T14:40:47;8.40;99.90
31991;DHT22;18508;49.386;8.370;2023-01-16T14:43:35;8.30;99.90
31991;DHT22;18508;49.386;8.370;2023-01-16T14:46:53;8.30;99.90
31991;DHT22;18508;49.386;8.370;2023-01-16T14:49:56;8.40;99.90
31991;DHT22;18508;49.386;8.370;2023-01-16T14:52:52;8.10;99.90
31991;DHT22;18508;49.386;8.370;2023-01-16T14:55:47;8.30;99.90
31991;DHT22;18508;49.386;8.370;2023-01-16T14:58:20;7.70;99.90
31991;DHT22;18508;49.386;8.370;2023-01-16T15:00:51;7.50;99.90
31991;DHT22;18508;49.386;8.370;2023-01-16T15:03:26;7.50;99.90
31991;DHT22;18508;49.386;8.370;2023-01-16T15:05:57;7.40;99.90
31991;DHT22;18508;49.386;8.370;2023-01-16T15:08:35;7.40;99.90
31991;DHT22;18508;49.386;8.370;2023-01-16T15:11:10;6.90;99.90
31991;DHT22;18508;49.386;8.370;2023-01-16T15:14:10;7.20;99.90
31991;DHT22;18508;49.386;8.370;2023-01-16T15:20:19;6.90;99.90
31991;DHT22;18508;49.386;8.370;2023-01-16T15:23:17;6.70;99.90
31991;DHT22;18508;49.386;8.370;2023-01-16T15:25:59;6.80;99.90
31991;DHT22;18508;49.386;8.370;2023-01-16T15:28:42;6.60;99.90
31991;DHT22;18508;49.386;8.370;2023-01-16T15:31:18;6.30;99.90
31991;DHT22;18508;49.386;8.370;2023-01-16T15:33:59;6.40;99.90
31991;DHT22;18508;49.386;8.370;2023-01-16T15:36:34;6.20;99.90
31991;DHT22;18508;49.386;8.370;2023-01-16T15:39:16;6.30;99.90
31991;DHT22;18508;49.386;8.370;2023-01-16T15:41:49;6.30;99.90
31991;DHT22;18508;49.386;8.370;2023-01-16T15:44:39;6.20;99.90
31991;DHT22;18508;49.386;8.370;2023-01-16T15:47:45;6.10;99.90
31991;DHT22;18508;49.386;8.370;2023-01-16T15:50:24;7.20;99.90
31991;DHT22;18508;49.386;8.370;2023-01-16T15:52:55;6.10;99.90
31991;DHT22;18508;49.386;8.370;2023-01-16T15:55:28;5.90;99.90
31991;DHT22;18508;49.386;8.370;2023-01-16T15:57:59;5.80;99.90
31991;DHT22;18508;49.386;8.370;2023-01-16T16:00:32;5.80;99.90
31991;DHT22;18508;49.386;8.370;2023-01-16T16:03:09;6.00;99.90
31991;DHT22;18508;49.386;8.370;2023-01-16T16:05:43;5.70;99.90
31991;DHT22;18508;49.386;8.370;2023-01-16T16:08:16;6.20;99.90
31991;DHT22;18508;49.386;8.370;2023-01-16T16:10:45;5.80;99.90
31991;DHT22;18508;49.386;8.370;2023-01-16T16:13:32;6.10;99.90
31991;DHT22;18508;49.386;8.370;2023-01-16T16:16:04;6.00;99.90
31991;DHT22;18508;49.386;8.370;2023-01-16T16:19:00;5.70;99.90
31991;DHT22;18508;49.386;8.370;2023-01-16T16:21:31;5.70;99.90
31991;DHT22;18508;49.386;8.370;2023-01-16T16:24:04;5.70;99.90
31991;DHT22;18508;49.386;8.370;2023-01-16T16:26:38;5.60;99.90
31991;DHT22;18508;49.386;8.370;2023-01-16T16:29:16;5.60;99.90
31991;DHT22;18508;49.386;8.370;2023-01-16T16:31:47;5.60;99.90
31991;DHT22;18508;49.386;8.370;2023-01-16T16:34:19;5.70;99.90
31991;DHT22;18508;49.386;8.370;2023-01-16T16:36:53;5.60;99.90
31991;DHT22;18508;49.386;8.370;2023-01-16T16:39:30;5.30;99.90
31991;DHT22;18508;49.386;8.370;2023-01-16T16:42:23;5.10;99.90
31991;DHT22;18508;49.386;8.370;2023-01-16T16:45:09;5.60;99.90
31991;DHT22;18508;49.386;8.370;2023-01-16T16:47:43;5.40;99.90
31991;DHT22;18508;49.386;8.370;2023-01-16T16:50:29;5.60;99.90
31991;DHT22;18508;49.386;8.370;2023-01-16T16:53:10;5.70;99.90
31991;DHT22;18508;49.386;8.370;2023-01-16T16:55:40;5.70;99.90
31991;DHT22;18508;49.386;8.370;2023-01-16T16:58:14;5.50;99.90
31991;DHT22;18508;49.386;8.370;2023-01-16T17:00:43;5.50;99.90
31991;DHT22;18508;49.386;8.370;2023-01-16T17:03:17;5.40;99.90
31991;DHT22;18508;49.386;8.370;2023-01-16T17:05:46;5.50;99.90
31991;DHT22;18508;49.386;8.370;2023-01-16T17:08:20;5.70;99.90
31991;DHT22;18508;49.386;8.370;2023-01-16T17:10:49;5.40;99.90
31991;DHT22;18508;49.386;8.370;2023-01-16T17:13:18;5.40;99.90
31991;DHT22;18508;49.386;8.370;2023-01-16T17:15:50;5.40;99.90
31991;DHT22;18508;49.386;8.370;2023-01-16T17:18:20;5.70;99.90
31991;DHT22;18508;49.386;8.370;2023-01-16T17:20:50;5.30;99.90
31991;DHT22;18508;49.386;8.370;2023-01-16T17:23:23;5.40;99.90
31991;DHT22;18508;49.386;8.370;2023-01-16T17:25:52;5.40;99.90
31991;DHT22;18508;49.386;8.370;2023-01-16T17:28:20;5.30;99.90
31991;DHT22;18508;49.386;8.370;2023-01-16T17:30:50;5.40;99.90
31991;DHT22;18508;49.386;8.370;2023-01-16T17:33:20;5.20;99.90
31991;DHT22;18508;49.386;8.370;2023-01-16T17:35:49;5.20;99.90
31991;DHT22;18508;49.386;8.370;2023-01-16T17:38:36;5.30;99.90
31991;DHT22;18508;49.386;8.370;2023-01-16T17:41:05;5.30;99.90
31991;DHT22;18508;49.386;8.370;2023-01-16T17:43:34;5.30;99.90
31991;DHT22;18508;49.386;8.370;2023-01-16T17:46:19;5.10;99.90